createdAt,value
2017-06-23T00:00:02.886Z,100431
2017-06-23T00:02:30.167Z,100422
2017-06-23T00:04:57.458Z,100424
2017-06-23T00:07:24.721Z,100425
2017-06-23T00:09:52.010Z,100422
2017-06-23T00:12:19.281Z,100426
2017-06-23T00:14:46.959Z,100431
2017-06-23T00:17:14.247Z,100432
2017-06-23T00:19:41.523Z,100431
2017-06-23T00:22:08.796Z,100426
2017-06-23T00:24:36.479Z,100431
2017-06-23T00:27:03.761Z,100431
2017-06-23T00:29:32.096Z,100424
2017-06-23T00:31:59.768Z,100419
2017-06-23T00:34:27.062Z,100414
2017-06-23T00:36:54.351Z,100418
2017-06-23T00:39:21.644Z,100428
2017-06-23T00:41:48.932Z,100422
2017-06-23T00:44:16.197Z,100432
2017-06-23T00:46:43.482Z,100435
2017-06-23T00:49:10.766Z,100426
2017-06-23T00:51:41.394Z,100437
2017-06-23T00:54:09.881Z,100435
2017-06-23T00:56:37.254Z,100430
2017-06-23T00:59:04.535Z,100435
2017-06-23T01:01:31.801Z,100431
2017-06-23T01:03:59.468Z,100434
2017-06-23T01:06:26.741Z,100425
2017-06-23T01:08:54.008Z,100426
2017-06-23T01:11:21.286Z,100431
2017-06-23T01:13:48.570Z,100430
2017-06-23T01:16:15.855Z,100423
2017-06-23T01:18:43.140Z,100423
2017-06-23T01:21:10.431Z,100420
2017-06-23T01:23:38.007Z,100427
2017-06-23T01:26:05.276Z,100427
2017-06-23T01:28:32.566Z,100429
2017-06-23T01:30:59.858Z,100416
2017-06-23T01:33:27.139Z,100419
2017-06-23T01:35:54.423Z,100425
2017-06-23T01:38:21.687Z,100430
2017-06-23T01:40:48.956Z,100426
2017-06-23T01:43:16.621Z,100423
2017-06-23T01:45:43.996Z,100428
2017-06-23T01:48:11.673Z,100426
2017-06-23T01:50:41.176Z,100418
2017-06-23T01:53:12.107Z,100426
2017-06-23T01:55:39.566Z,100424
2017-06-23T01:58:09.080Z,100421
2017-06-23T02:00:36.541Z,100418
2017-06-23T02:03:04.237Z,100418
2017-06-23T02:05:32.490Z,100421
2017-06-23T02:08:00.728Z,100425
2017-06-23T02:10:29.234Z,100420
2017-06-23T02:12:57.288Z,100427
2017-06-23T02:15:26.348Z,100418
2017-06-23T02:17:56.593Z,100427
2017-06-23T02:20:24.024Z,100427
2017-06-23T02:22:51.740Z,100431
2017-06-23T02:25:19.055Z,100432
2017-06-23T02:27:46.324Z,100426
2017-06-23T02:30:13.992Z,100423
2017-06-23T02:32:41.267Z,100427
2017-06-23T02:35:08.722Z,100428
2017-06-23T02:37:36.002Z,100421
2017-06-23T02:40:03.268Z,100431
2017-06-23T02:42:31.378Z,100426
2017-06-23T02:44:58.658Z,100426
2017-06-23T02:47:25.933Z,100421
2017-06-23T02:49:53.209Z,100427
2017-06-23T02:52:20.494Z,100427
2017-06-23T02:54:47.760Z,100414
2017-06-23T02:57:15.029Z,100419
2017-06-23T02:59:42.327Z,100415
2017-06-23T03:02:09.593Z,100426
2017-06-23T03:04:36.998Z,100424
2017-06-23T03:07:04.272Z,100424
2017-06-23T03:09:31.544Z,100427
2017-06-23T03:11:59.210Z,100432
2017-06-23T03:14:26.503Z,100435
2017-06-23T03:16:53.796Z,100440
2017-06-23T03:19:21.085Z,100443
2017-06-23T03:21:48.375Z,100443
2017-06-23T03:24:15.657Z,100441
2017-06-23T03:26:42.928Z,100444
2017-06-23T03:29:10.212Z,100440
2017-06-23T03:31:37.507Z,100450
2017-06-23T03:34:04.790Z,100449
2017-06-23T03:36:32.065Z,100450
2017-06-23T03:38:59.354Z,100447
2017-06-23T03:41:26.648Z,100459
2017-06-23T03:43:54.335Z,100451
2017-06-23T03:46:21.618Z,100447
2017-06-23T03:48:48.902Z,100459
2017-06-23T03:51:16.327Z,100456
2017-06-23T03:53:43.611Z,100458
2017-06-23T03:56:10.884Z,100461
2017-06-23T03:58:38.803Z,100463
2017-06-23T04:01:06.072Z,100464
2017-06-23T04:03:33.352Z,100463
2017-06-23T04:06:00.628Z,100467
2017-06-23T04:08:27.901Z,100467
2017-06-23T04:10:55.169Z,100470
2017-06-23T04:13:22.450Z,100472
2017-06-23T04:15:49.724Z,100469
2017-06-23T04:18:17.006Z,100477
2017-06-23T04:20:44.428Z,100470
2017-06-23T04:23:12.100Z,100469
2017-06-23T04:25:39.413Z,100468
2017-06-23T04:28:06.695Z,100482
2017-06-23T04:30:33.990Z,100474
2017-06-23T04:33:01.273Z,100477
2017-06-23T04:35:28.562Z,100474
2017-06-23T04:37:56.253Z,100479
2017-06-23T04:40:23.547Z,100483
2017-06-23T04:42:50.834Z,100478
2017-06-23T04:45:18.114Z,100489
2017-06-23T04:47:45.398Z,100491
2017-06-23T04:50:12.674Z,100487
2017-06-23T04:52:39.955Z,100491
2017-06-23T04:55:07.235Z,100496
2017-06-23T04:57:34.519Z,100506
2017-06-23T05:00:01.801Z,100504
2017-06-23T05:02:29.077Z,100501
2017-06-23T05:04:56.518Z,100498
2017-06-23T05:07:23.801Z,100502
2017-06-23T05:09:51.091Z,100509
2017-06-23T05:12:18.369Z,100507
2017-06-23T05:14:45.659Z,100510
2017-06-23T05:17:13.135Z,100514
2017-06-23T05:19:40.414Z,100523
2017-06-23T05:22:07.722Z,100520
2017-06-23T05:24:35.006Z,100520
2017-06-23T05:27:02.307Z,100524
2017-06-23T05:29:29.594Z,100528
2017-06-23T05:31:56.899Z,100532
2017-06-23T05:34:24.168Z,100534
2017-06-23T05:36:51.453Z,100532
2017-06-23T05:39:18.739Z,100540
2017-06-23T05:41:46.013Z,100535
2017-06-23T05:44:13.292Z,100532
2017-06-23T05:46:40.563Z,100536
2017-06-23T05:49:07.842Z,100544
2017-06-23T05:51:35.108Z,100538
2017-06-23T05:54:02.402Z,100552
2017-06-23T05:56:30.010Z,100568
2017-06-23T05:58:57.294Z,100563
2017-06-23T06:01:24.566Z,100568
2017-06-23T06:03:52.044Z,100559
2017-06-23T06:06:19.321Z,100562
2017-06-23T06:08:46.596Z,100562
2017-06-23T06:11:14.197Z,100564
2017-06-23T06:13:41.487Z,100562
2017-06-23T06:16:08.767Z,100561
2017-06-23T06:18:36.446Z,100564
2017-06-23T06:21:03.734Z,100569
2017-06-23T06:23:31.022Z,100565
2017-06-23T06:25:58.303Z,100571
2017-06-23T06:28:25.964Z,100567
2017-06-23T06:30:53.239Z,100563
2017-06-23T06:33:20.517Z,100575
2017-06-23T06:35:47.791Z,100575
2017-06-23T06:38:15.083Z,100575
2017-06-23T06:40:42.357Z,100587
2017-06-23T06:43:09.902Z,100587
2017-06-23T06:45:37.191Z,100595
2017-06-23T06:48:04.475Z,100602
2017-06-23T06:50:31.770Z,100603
2017-06-23T06:52:59.049Z,100602
2017-06-23T06:55:26.330Z,100597
2017-06-23T06:57:53.614Z,100599
2017-06-23T07:00:20.902Z,100599
2017-06-23T07:02:48.175Z,100609
2017-06-23T07:05:15.479Z,100601
2017-06-23T07:07:42.946Z,100606
2017-06-23T07:10:10.217Z,100611
2017-06-23T07:12:37.497Z,100614
2017-06-23T07:15:04.768Z,100606
2017-06-23T07:17:32.053Z,100612
2017-06-23T07:19:59.334Z,100615
2017-06-23T07:22:26.622Z,100608
2017-06-23T07:24:53.905Z,100609
2017-06-23T07:27:21.178Z,100606
2017-06-23T07:29:48.448Z,100607
2017-06-23T07:32:15.716Z,100613
2017-06-23T07:34:42.989Z,100606
2017-06-23T07:37:10.276Z,100618
2017-06-23T07:39:37.557Z,100618
2017-06-23T07:42:04.842Z,100620
2017-06-23T07:44:32.130Z,100620
2017-06-23T07:46:59.400Z,100618
2017-06-23T07:49:26.771Z,100632
2017-06-23T07:51:54.039Z,100622
2017-06-23T07:54:21.543Z,100625
2017-06-23T07:56:48.851Z,100625
2017-06-23T07:59:16.138Z,100624
2017-06-23T08:01:43.800Z,100625
2017-06-23T08:04:11.065Z,100624
2017-06-23T08:06:38.359Z,100629
2017-06-23T08:09:05.626Z,100631
2017-06-23T08:11:32.920Z,100637
2017-06-23T08:14:00.206Z,100641
2017-06-23T08:16:27.491Z,100646
2017-06-23T08:18:55.367Z,100641
2017-06-23T08:21:22.636Z,100644
2017-06-23T08:23:50.310Z,100648
2017-06-23T08:26:17.594Z,100649
2017-06-23T08:28:44.883Z,100650
2017-06-23T08:31:12.162Z,100653
2017-06-23T08:33:39.848Z,100662
2017-06-23T08:36:07.139Z,100661
2017-06-23T08:38:34.409Z,100657
2017-06-23T08:41:01.690Z,100662
2017-06-23T08:43:29.744Z,100658
2017-06-23T08:45:57.436Z,100662
2017-06-23T08:48:24.728Z,100664
2017-06-23T08:50:52.009Z,100665
2017-06-23T08:53:19.289Z,100665
2017-06-23T08:55:46.574Z,100666
2017-06-23T08:58:13.849Z,100672
2017-06-23T09:00:41.144Z,100672
2017-06-23T09:03:08.431Z,100674
2017-06-23T09:05:35.700Z,100674
2017-06-23T09:08:02.989Z,100671
2017-06-23T09:10:30.252Z,100673
2017-06-23T09:12:57.379Z,100669
2017-06-23T09:15:24.645Z,100676
2017-06-23T09:17:51.937Z,100679
2017-06-23T09:20:19.205Z,100683
2017-06-23T09:22:46.489Z,100685
2017-06-23T09:25:13.760Z,100685
2017-06-23T09:27:41.447Z,100690
2017-06-23T09:30:08.731Z,100678
2017-06-23T09:32:36.001Z,100680
2017-06-23T09:35:03.276Z,100686
2017-06-23T09:37:30.964Z,100675
2017-06-23T09:39:58.530Z,100682
2017-06-23T09:42:25.824Z,100684
2017-06-23T09:44:53.111Z,100679
2017-06-23T09:47:20.784Z,100685
2017-06-23T09:49:48.053Z,100686
2017-06-23T09:52:15.326Z,100692
2017-06-23T09:54:42.599Z,100693
2017-06-23T09:57:10.715Z,100680
2017-06-23T09:59:37.997Z,100688
2017-06-23T10:02:05.282Z,100685
2017-06-23T10:04:32.557Z,100699
2017-06-23T10:06:59.836Z,100698
2017-06-23T10:09:27.386Z,100685
2017-06-23T10:11:54.675Z,100701
2017-06-23T10:14:21.941Z,100701
2017-06-23T10:16:49.452Z,100704
2017-06-23T10:19:16.721Z,100698
2017-06-23T10:21:44.011Z,100703
2017-06-23T10:24:11.290Z,100713
2017-06-23T10:26:38.565Z,100712
2017-06-23T10:29:05.855Z,100702
2017-06-23T10:31:33.130Z,100715
2017-06-23T10:34:00.427Z,100708
2017-06-23T10:36:27.701Z,100710
2017-06-23T10:38:55.021Z,100715
2017-06-23T10:41:22.292Z,100713
2017-06-23T10:43:49.602Z,100703
2017-06-23T10:46:16.898Z,100708
2017-06-23T10:48:44.255Z,100700
2017-06-23T10:51:11.521Z,100703
2017-06-23T10:53:38.817Z,100696
2017-06-23T10:56:06.093Z,100698
2017-06-23T10:58:33.369Z,100691
2017-06-23T11:01:00.747Z,100692
2017-06-23T11:03:28.030Z,100692
2017-06-23T11:05:55.305Z,100685
2017-06-23T11:08:22.590Z,100696
2017-06-23T11:10:49.875Z,100696
2017-06-23T11:13:17.356Z,100694
2017-06-23T11:15:44.620Z,100685
2017-06-23T11:18:11.911Z,100693
2017-06-23T11:20:39.199Z,100701
2017-06-23T11:23:06.465Z,100689
2017-06-23T11:25:33.736Z,100694
2017-06-23T11:28:01.022Z,100685
2017-06-23T11:30:28.281Z,100702
2017-06-23T11:32:55.566Z,100700
2017-06-23T11:35:22.857Z,100704
2017-06-23T11:37:50.128Z,100708
2017-06-23T11:40:17.397Z,100701
2017-06-23T11:42:44.691Z,100692
2017-06-23T11:45:11.980Z,100695
2017-06-23T11:47:39.249Z,100690
2017-06-23T11:50:07.302Z,100685
2017-06-23T11:52:34.591Z,100681
2017-06-23T11:55:01.865Z,100688
2017-06-23T11:57:29.137Z,100680
2017-06-23T11:59:56.419Z,100684
2017-06-23T12:02:23.709Z,100686
2017-06-23T12:04:50.982Z,100682
2017-06-23T12:07:18.266Z,100690
2017-06-23T12:09:45.544Z,100695
2017-06-23T12:12:12.817Z,100683
2017-06-23T12:14:40.099Z,100680
2017-06-23T12:17:07.384Z,100676
2017-06-23T12:19:34.870Z,100676
2017-06-23T12:22:02.139Z,100680
2017-06-23T12:24:29.408Z,100675
2017-06-23T12:26:56.680Z,100673
2017-06-23T12:29:24.367Z,100679
2017-06-23T12:31:51.641Z,100675
2017-06-23T12:34:18.927Z,100668
2017-06-23T12:36:46.205Z,100662
2017-06-23T12:39:13.884Z,100666
2017-06-23T12:41:41.171Z,100673
2017-06-23T12:44:08.449Z,100671
2017-06-23T12:46:35.720Z,100664
2017-06-23T12:49:03.409Z,100664
2017-06-23T12:51:30.690Z,100664
2017-06-23T12:53:57.974Z,100668
2017-06-23T12:56:25.254Z,100668
2017-06-23T12:58:52.547Z,100666
2017-06-23T13:01:19.835Z,100661
2017-06-23T13:03:47.628Z,100658
2017-06-23T13:06:14.919Z,100652
2017-06-23T13:08:42.212Z,100655
2017-06-23T13:11:09.886Z,100660
2017-06-23T13:13:37.174Z,100656
2017-06-23T13:16:04.539Z,100655
2017-06-23T13:18:31.809Z,100647
2017-06-23T13:20:59.076Z,100644
2017-06-23T13:23:26.362Z,100648
2017-06-23T13:25:53.647Z,100653
2017-06-23T13:28:20.934Z,100657
2017-06-23T13:30:48.214Z,100657
2017-06-23T13:33:15.893Z,100658
2017-06-23T13:35:43.160Z,100660
2017-06-23T13:38:10.503Z,100655
2017-06-23T13:40:37.777Z,100648
2017-06-23T13:43:05.063Z,100653
2017-06-23T13:45:32.746Z,100660
2017-06-23T13:48:00.024Z,100645
2017-06-23T13:50:27.315Z,100653
2017-06-23T13:52:54.634Z,100651
2017-06-23T13:55:21.927Z,100647
2017-06-23T13:57:49.219Z,100649
2017-06-23T14:00:17.396Z,100650
2017-06-23T14:02:44.666Z,100655
2017-06-23T14:05:11.950Z,100645
2017-06-23T14:07:39.235Z,100648
2017-06-23T14:10:06.517Z,100650
2017-06-23T14:12:33.980Z,100648
2017-06-23T14:15:01.253Z,100639
2017-06-23T14:17:28.525Z,100641
2017-06-23T14:19:55.808Z,100644
2017-06-23T14:22:23.112Z,100644
2017-06-23T14:24:50.372Z,100637
2017-06-23T14:27:17.655Z,100644
2017-06-23T14:29:45.248Z,100640
2017-06-23T14:32:12.529Z,100632
2017-06-23T14:34:45.113Z,100642
2017-06-23T14:37:12.619Z,100637
2017-06-23T14:39:39.903Z,100640
2017-06-23T14:42:07.175Z,100642
2017-06-23T14:44:34.463Z,100642
2017-06-23T14:47:01.749Z,100641
2017-06-23T14:49:30.142Z,100636
2017-06-23T14:51:57.416Z,100634
2017-06-23T14:54:24.702Z,100640
2017-06-23T14:56:51.988Z,100639
2017-06-23T14:59:19.251Z,100638
2017-06-23T15:01:46.525Z,100632
2017-06-23T15:04:13.796Z,100624
2017-06-23T15:06:41.234Z,100630
2017-06-23T15:09:08.570Z,100632
2017-06-23T15:11:35.845Z,100627
2017-06-23T15:14:03.117Z,100637
2017-06-23T15:16:30.403Z,100630
2017-06-23T15:18:57.686Z,100632
2017-06-23T15:21:24.957Z,100636
2017-06-23T15:23:52.238Z,100622
2017-06-23T15:26:19.542Z,100633
2017-06-23T15:28:46.917Z,100632
2017-06-23T15:31:14.189Z,100636
2017-06-23T15:33:41.474Z,100629
2017-06-23T15:36:09.675Z,100631
2017-06-23T15:38:38.668Z,100634
2017-06-23T15:41:05.985Z,100638
2017-06-23T15:43:33.266Z,100640
2017-06-23T15:46:01.004Z,100635
2017-06-23T15:48:28.312Z,100629
2017-06-23T15:50:55.581Z,100634
2017-06-23T15:53:23.584Z,100640
2017-06-23T15:55:50.887Z,100639
2017-06-23T15:58:18.173Z,100622
2017-06-23T16:00:45.601Z,100621
2017-06-23T16:03:12.865Z,100627
2017-06-23T16:05:40.375Z,100618
2017-06-23T16:08:07.641Z,100625
2017-06-23T16:10:34.917Z,100634
2017-06-23T16:13:02.212Z,100627
2017-06-23T16:15:29.499Z,100636
2017-06-23T16:17:57.127Z,100639
2017-06-23T16:20:24.389Z,100636
2017-06-23T16:22:52.207Z,100629
2017-06-23T16:25:19.504Z,100621
2017-06-23T16:27:46.772Z,100619
2017-06-23T16:30:14.055Z,100623
2017-06-23T16:32:41.328Z,100629
2017-06-23T16:35:08.620Z,100629
2017-06-23T16:37:36.276Z,100622
2017-06-23T16:40:03.550Z,100622
2017-06-23T16:42:30.817Z,100615
2017-06-23T16:44:58.168Z,100619
2017-06-23T16:47:25.464Z,100610
2017-06-23T16:49:52.748Z,100610
2017-06-23T16:52:20.933Z,100610
2017-06-23T16:54:48.264Z,100611
2017-06-23T16:57:15.932Z,100614
2017-06-23T16:59:43.202Z,100605
2017-06-23T17:02:10.466Z,100616
2017-06-23T17:04:37.770Z,100609
2017-06-23T17:07:05.069Z,100614
2017-06-23T17:09:32.358Z,100623
2017-06-23T17:11:59.639Z,100626
2017-06-23T17:14:26.909Z,100625
2017-06-23T17:16:54.195Z,100622
2017-06-23T17:19:21.631Z,100619
2017-06-23T17:21:48.911Z,100620
2017-06-23T17:24:16.206Z,100629
2017-06-23T17:26:44.471Z,100623
2017-06-23T17:29:11.772Z,100619
2017-06-23T17:31:39.043Z,100628
2017-06-23T17:34:06.324Z,100623
2017-06-23T17:36:33.603Z,100635
2017-06-23T17:39:00.876Z,100631
2017-06-23T17:41:28.167Z,100632
2017-06-23T17:43:55.454Z,100621
2017-06-23T17:46:23.061Z,100635
2017-06-23T17:48:50.355Z,100634
2017-06-23T17:51:17.800Z,100631
2017-06-23T17:53:45.091Z,100639
2017-06-23T17:56:12.752Z,100636
2017-06-23T17:58:40.272Z,100640
2017-06-23T18:01:07.752Z,100651
2017-06-23T18:03:35.216Z,100648
2017-06-23T18:06:02.836Z,100644
2017-06-23T18:08:30.127Z,100645
2017-06-23T18:10:57.415Z,100646
2017-06-23T18:13:24.690Z,100647
2017-06-23T18:15:51.964Z,100642
2017-06-23T18:18:19.647Z,100647
2017-06-23T18:20:47.080Z,100647
2017-06-23T18:23:14.371Z,100643
2017-06-23T18:25:41.655Z,100645
2017-06-23T18:28:08.940Z,100643
2017-06-23T18:30:36.239Z,100649
2017-06-23T18:33:03.517Z,100653
2017-06-23T18:35:30.787Z,100651
2017-06-23T18:37:58.064Z,100644
2017-06-23T18:40:25.340Z,100651
2017-06-23T18:42:53.274Z,100651
2017-06-23T18:45:20.557Z,100657
2017-06-23T18:47:47.832Z,100659
2017-06-23T18:50:15.109Z,100662
2017-06-23T18:52:42.400Z,100662
2017-06-23T18:55:09.665Z,100658
2017-06-23T18:57:36.946Z,100665
2017-06-23T19:00:04.222Z,100658
2017-06-23T19:02:31.508Z,100662
2017-06-23T19:04:58.794Z,100665
2017-06-23T19:07:26.683Z,100662
2017-06-23T19:09:53.983Z,100662
2017-06-23T19:12:21.271Z,100657
2017-06-23T19:14:48.957Z,100649
2017-06-23T19:17:16.234Z,100659
2017-06-23T19:19:43.668Z,100649
2017-06-23T19:22:10.952Z,100665
2017-06-23T19:24:38.258Z,100664
2017-06-23T19:27:05.577Z,100671
2017-06-23T19:29:32.860Z,100671
2017-06-23T19:32:00.524Z,100672
2017-06-23T19:34:28.378Z,100668
2017-06-23T19:36:56.132Z,100672
2017-06-23T19:39:23.903Z,100679
2017-06-23T19:41:51.608Z,100672
2017-06-23T19:44:18.903Z,100680
2017-06-23T19:46:46.184Z,100683
2017-06-23T19:49:13.989Z,100684
2017-06-23T19:51:41.264Z,100684
2017-06-23T19:54:08.543Z,100675
2017-06-23T19:56:35.835Z,100684
2017-06-23T19:59:03.575Z,100690
2017-06-23T20:01:31.645Z,100684
2017-06-23T20:03:59.944Z,100679
2017-06-23T20:06:28.168Z,100680
2017-06-23T20:08:55.992Z,100681
2017-06-23T20:11:23.638Z,100682
2017-06-23T20:13:51.078Z,100687
2017-06-23T20:16:18.748Z,100688
2017-06-23T20:18:46.022Z,100681
2017-06-23T20:21:13.476Z,100687
2017-06-23T20:23:41.489Z,100686
2017-06-23T20:26:09.597Z,100694
2017-06-23T20:28:36.936Z,100699
2017-06-23T20:31:04.226Z,100703
2017-06-23T20:33:33.854Z,100707
2017-06-23T20:36:01.177Z,100704
2017-06-23T20:38:28.450Z,100700
2017-06-23T20:40:55.899Z,100700
2017-06-23T20:43:23.186Z,100704
2017-06-23T20:45:50.815Z,100711
2017-06-23T20:48:18.270Z,100720
2017-06-23T20:50:45.667Z,100716
2017-06-23T20:53:12.962Z,100732
2017-06-23T20:55:40.271Z,100727
2017-06-23T20:58:07.562Z,100730
2017-06-23T21:00:34.856Z,100729
2017-06-23T21:03:02.398Z,100730
2017-06-23T21:05:29.706Z,100740
2017-06-23T21:07:57.013Z,100744
2017-06-23T21:10:24.297Z,100744
2017-06-23T21:12:51.584Z,100739
2017-06-23T21:15:19.950Z,100738
2017-06-23T21:17:47.762Z,100752
2017-06-23T21:20:15.200Z,100745
2017-06-23T21:22:42.672Z,100746
2017-06-23T21:25:10.419Z,100760
2017-06-23T21:27:37.820Z,100755
2017-06-23T21:30:05.097Z,100767
2017-06-23T21:32:32.498Z,100754
2017-06-23T21:35:00.188Z,100769
2017-06-23T21:37:27.710Z,100765
2017-06-23T21:39:55.180Z,100767
2017-06-23T21:42:22.636Z,100769
2017-06-23T21:44:49.938Z,100767
2017-06-23T21:47:17.749Z,100765
2017-06-23T21:49:45.011Z,100776
2017-06-23T21:52:12.608Z,100779
2017-06-23T21:54:39.897Z,100761
2017-06-23T21:57:07.570Z,100759
2017-06-23T21:59:34.864Z,100763
2017-06-23T22:02:02.147Z,100761
2017-06-23T22:04:29.432Z,100766
2017-06-23T22:06:59.648Z,100761
2017-06-23T22:09:27.461Z,100774
2017-06-23T22:11:56.175Z,100769
2017-06-23T22:14:24.382Z,100780
2017-06-23T22:16:51.664Z,100774
2017-06-23T22:19:19.684Z,100769
2017-06-23T22:21:47.357Z,100777
2017-06-23T22:24:14.626Z,100776
2017-06-23T22:26:41.917Z,100780
2017-06-23T22:29:09.203Z,100781
2017-06-23T22:31:37.307Z,100788
2017-06-23T22:34:04.627Z,100782
2017-06-23T22:36:31.909Z,100774
2017-06-23T22:38:59.190Z,100775
2017-06-23T22:41:26.465Z,100781
2017-06-23T22:43:53.756Z,100774
2017-06-23T22:46:21.020Z,100775
2017-06-23T22:48:48.576Z,100780
2017-06-23T22:51:15.871Z,100781
2017-06-23T22:53:43.148Z,100779
2017-06-23T22:56:10.427Z,100785
2017-06-23T22:58:37.701Z,100784
2017-06-23T23:01:04.973Z,100781
2017-06-23T23:03:32.093Z,100780
2017-06-23T23:05:59.384Z,100786
2017-06-23T23:08:26.652Z,100786
2017-06-23T23:10:53.930Z,100781
2017-06-23T23:13:21.316Z,100786
2017-06-23T23:15:48.611Z,100784
2017-06-23T23:18:15.871Z,100780
2017-06-23T23:20:43.149Z,100791
2017-06-23T23:23:10.435Z,100780
2017-06-23T23:25:37.955Z,100785
2017-06-23T23:28:05.258Z,100776
2017-06-23T23:30:32.530Z,100780
2017-06-23T23:32:59.800Z,100783
2017-06-23T23:35:27.087Z,100773
2017-06-23T23:37:54.375Z,100771
2017-06-23T23:40:21.667Z,100777
2017-06-23T23:42:48.937Z,100778
2017-06-23T23:45:16.209Z,100779
2017-06-23T23:47:43.538Z,100781
2017-06-23T23:50:10.812Z,100772
2017-06-23T23:52:38.081Z,100777
2017-06-23T23:55:05.371Z,100779
2017-06-23T23:57:32.645Z,100766
